sensor_id;sensor_type;location;lat;lon;timestamp;temperature;humidity
23083;DHT22;11709;52.420;10.538;2023-01-08T00:00:49;9.90;99.90
23083;DHT22;11709;52.420;10.538;2023-01-08T00:04:52;9.80;99.90
23083;DHT22;11709;52.420;10.538;2023-01-08T00:08:54;9.80;99.90
23083;DHT22;11709;52.420;10.538;2023-01-08T00:12:57;9.90;99.90
23083;DHT22;11709;52.420;10.538;2023-01-08T00:16:59;9.90;99.90
23083;DHT22;11709;52.420;10.538;2023-01-08T00:21:03;9.80;99.90
23083;DHT22;11709;52.420;10.538;2023-01-08T00:25:06;9.90;99.90
23083;DHT22;11709;52.420;10.538;2023-01-08T00:29:09;9.90;99.90
23083;DHT22;11709;52.420;10.538;2023-01-08T00:33:12;9.80;99.90
23083;DHT22;11709;52.420;10.538;2023-01-08T00:37:14;9.70;99.90
23083;DHT22;11709;52.420;10.538;2023-01-08T00:41:18;9.70;99.90
23083;DHT22;11709;52.420;10.538;2023-01-08T00:45:21;9.70;99.90
23083;DHT22;11709;52.420;10.538;2023-01-08T00:49:23;9.70;99.90
23083;DHT22;11709;52.420;10.538;2023-01-08T00:53:26;9.70;99.90
23083;DHT22;11709;52.420;10.538;2023-01-08T00:57:36;9.70;99.90
23083;DHT22;11709;52.420;10.538;2023-01-08T01:01:39;9.70;99.90
23083;DHT22;11709;52.420;10.538;2023-01-08T01:05:41;9.80;99.90
23083;DHT22;11709;52.420;10.538;2023-01-08T01:09:44;9.80;99.90
23083;DHT22;11709;52.420;10.538;2023-01-08T01:13:47;9.90;99.90
23083;DHT22;11709;52.420;10.538;2023-01-08T01:17:49;9.90;99.90
23083;DHT22;11709;52.420;10.538;2023-01-08T01:21:52;9.90;99.90
23083;DHT22;11709;52.420;10.538;2023-01-08T01:25:54;9.90;99.90
23083;DHT22;11709;52.420;10.538;2023-01-08T01:29:57;9.80;99.90
23083;DHT22;11709;52.420;10.538;2023-01-08T01:34:00;9.80;99.90
23083;DHT22;11709;52.420;10.538;2023-01-08T01:38:02;9.80;99.90
23083;DHT22;11709;52.420;10.538;2023-01-08T01:42:05;9.70;99.90
23083;DHT22;11709;52.420;10.538;2023-01-08T01:50:36;9.70;99.90
23083;DHT22;11709;52.420;10.538;2023-01-08T01:54:38;9.70;99.90
23083;DHT22;11709;52.420;10.538;2023-01-08T01:58:41;9.60;99.90
23083;DHT22;11709;52.420;10.538;2023-01-08T02:02:43;9.60;99.90
23083;DHT22;11709;52.420;10.538;2023-01-08T02:06:54;9.70;99.90
23083;DHT22;11709;52.420;10.538;2023-01-08T02:10:57;9.70;99.90
23083;DHT22;11709;52.420;10.538;2023-01-08T02:15:13;9.70;99.90
23083;DHT22;11709;52.420;10.538;2023-01-08T02:19:19;9.70;99.90
23083;DHT22;11709;52.420;10.538;2023-01-08T02:23:45;9.70;99.90
23083;DHT22;11709;52.420;10.538;2023-01-08T02:27:47;9.80;99.90
23083;DHT22;11709;52.420;10.538;2023-01-08T02:31:51;9.80;99.90
23083;DHT22;11709;52.420;10.538;2023-01-08T02:40:25;9.80;99.90
23083;DHT22;11709;52.420;10.538;2023-01-08T02:44:34;9.80;99.90
23083;DHT22;11709;52.420;10.538;2023-01-08T02:48:51;9.90;99.90
23083;DHT22;11709;52.420;10.538;2023-01-08T02:53:05;9.90;99.90
23083;DHT22;11709;52.420;10.538;2023-01-08T02:57:11;9.90;99.90
23083;DHT22;11709;52.420;10.538;2023-01-08T03:01:16;9.90;99.90
23083;DHT22;11709;52.420;10.538;2023-01-08T03:05:24;9.80;99.90
23083;DHT22;11709;52.420;10.538;2023-01-08T03:09:27;9.80;99.90
23083;DHT22;11709;52.420;10.538;2023-01-08T03:13:48;9.80;99.90
23083;DHT22;11709;52.420;10.538;2023-01-08T03:17:53;9.90;99.90
23083;DHT22;11709;52.420;10.538;2023-01-08T03:21:57;9.90;99.90
23083;DHT22;11709;52.420;10.538;2023-01-08T03:26:01;10.00;99.90
23083;DHT22;11709;52.420;10.538;2023-01-08T03:30:07;10.00;99.90
23083;DHT22;11709;52.420;10.538;2023-01-08T03:34:13;10.00;99.90
23083;DHT22;11709;52.420;10.538;2023-01-08T03:38:19;10.10;99.90
23083;DHT22;11709;52.420;10.538;2023-01-08T03:42:22;10.10;99.90
23083;DHT22;11709;52.420;10.538;2023-01-08T03:46:31;10.10;99.90
23083;DHT22;11709;52.420;10.538;2023-01-08T03:50:35;10.10;99.90
23083;DHT22;11709;52.420;10.538;2023-01-08T03:54:37;10.10;99.90
23083;DHT22;11709;52.420;10.538;2023-01-08T03:58:40;10.10;99.90
23083;DHT22;11709;52.420;10.538;2023-01-08T04:02:42;10.00;99.90
23083;DHT22;11709;52.420;10.538;2023-01-08T04:06:45;10.00;99.90
23083;DHT22;11709;52.420;10.538;2023-01-08T04:10:47;10.00;99.90
23083;DHT22;11709;52.420;10.538;2023-01-08T04:14:50;10.00;99.90
23083;DHT22;11709;52.420;10.538;2023-01-08T04:18:52;10.00;99.90
23083;DHT22;11709;52.420;10.538;2023-01-08T04:22:55;10.00;99.90
23083;DHT22;11709;52.420;10.538;2023-01-08T04:26:57;10.10;99.90
23083;DHT22;11709;52.420;10.538;2023-01-08T04:31:09;10.00;99.90
23083;DHT22;11709;52.420;10.538;2023-01-08T04:35:08;10.00;99.90
23083;DHT22;11709;52.420;10.538;2023-01-08T04:39:11;10.00;99.90
23083;DHT22;11709;52.420;10.538;2023-01-08T04:43:13;10.00;99.90
23083;DHT22;11709;52.420;10.538;2023-01-08T04:47:16;10.00;99.90
23083;DHT22;11709;52.420;10.538;2023-01-08T04:51:18;9.90;99.90
23083;DHT22;11709;52.420;10.538;2023-01-08T04:55:22;9.90;99.90
23083;DHT22;11709;52.420;10.538;2023-01-08T04:59:25;9.90;99.90
23083;DHT22;11709;52.420;10.538;2023-01-08T05:03:27;9.90;99.90
23083;DHT22;11709;52.420;10.538;2023-01-08T05:07:30;9.90;99.90
23083;DHT22;11709;52.420;10.538;2023-01-08T05:11:32;9.90;99.90
23083;DHT22;11709;52.420;10.538;2023-01-08T05:15:35;9.90;99.90
23083;DHT22;11709;52.420;10.538;2023-01-08T05:19:38;9.90;99.90
23083;DHT22;11709;52.420;10.538;2023-01-08T05:23:45;9.80;99.90
23083;DHT22;11709;52.420;10.538;2023-01-08T05:27:48;9.80;99.90
23083;DHT22;11709;52.420;10.538;2023-01-08T05:31:51;9.90;99.90
23083;DHT22;11709;52.420;10.538;2023-01-08T05:35:53;9.90;99.90
23083;DHT22;11709;52.420;10.538;2023-01-08T05:39:56;9.90;99.90
23083;DHT22;11709;52.420;10.538;2023-01-08T05:43:59;9.90;99.90
23083;DHT22;11709;52.420;10.538;2023-01-08T05:48:06;10.00;99.90
23083;DHT22;11709;52.420;10.538;2023-01-08T05:52:09;10.00;99.90
23083;DHT22;11709;52.420;10.538;2023-01-08T05:56:11;10.00;99.90
23083;DHT22;11709;52.420;10.538;2023-01-08T06:00:14;10.00;99.90
23083;DHT22;11709;52.420;10.538;2023-01-08T06:04:17;10.00;99.90
23083;DHT22;11709;52.420;10.538;2023-01-08T06:08:19;10.00;99.90
23083;DHT22;11709;52.420;10.538;2023-01-08T06:12:22;10.00;99.90
23083;DHT22;11709;52.420;10.538;2023-01-08T06:16:24;10.00;99.90
23083;DHT22;11709;52.420;10.538;2023-01-08T06:20:27;10.00;99.90
23083;DHT22;11709;52.420;10.538;2023-01-08T06:24:29;10.00;99.90
23083;DHT22;11709;52.420;10.538;2023-01-08T06:28:32;10.00;99.90
23083;DHT22;11709;52.420;10.538;2023-01-08T06:32:35;9.90;99.90
23083;DHT22;11709;52.420;10.538;2023-01-08T06:36:38;9.90;99.90
23083;DHT22;11709;52.420;10.538;2023-01-08T06:40:40;9.90;87.20
23083;DHT22;11709;52.420;10.538;2023-01-08T06:44:43;9.90;96.40
23083;DHT22;11709;52.420;10.538;2023-01-08T06:48:45;9.80;99.90
23083;DHT22;11709;52.420;10.538;2023-01-08T06:52:52;9.80;99.90
23083;DHT22;11709;52.420;10.538;2023-01-08T06:56:54;9.70;99.90
23083;DHT22;11709;52.420;10.538;2023-01-08T07:00:57;9.70;99.90
23083;DHT22;11709;52.420;10.538;2023-01-08T07:04:59;9.60;99.90
23083;DHT22;11709;52.420;10.538;2023-01-08T07:09:02;9.60;99.90
23083;DHT22;11709;52.420;10.538;2023-01-08T07:13:04;9.50;99.90
23083;DHT22;11709;52.420;10.538;2023-01-08T07:17:09;9.50;99.90
23083;DHT22;11709;52.420;10.538;2023-01-08T07:21:11;9.50;99.90
23083;DHT22;11709;52.420;10.538;2023-01-08T07:25:14;9.50;99.90
23083;DHT22;11709;52.420;10.538;2023-01-08T07:29:16;9.40;99.90
23083;DHT22;11709;52.420;10.538;2023-01-08T07:33:19;9.40;99.90
23083;DHT22;11709;52.420;10.538;2023-01-08T07:37:22;9.40;99.90
23083;DHT22;11709;52.420;10.538;2023-01-08T07:41:25;9.40;99.90
23083;DHT22;11709;52.420;10.538;2023-01-08T07:45:28;9.30;99.90
23083;DHT22;11709;52.420;10.538;2023-01-08T07:49:31;9.30;99.90
23083;DHT22;11709;52.420;10.538;2023-01-08T07:53:34;9.30;99.90
23083;DHT22;11709;52.420;10.538;2023-01-08T07:57:37;9.30;99.90
23083;DHT22;11709;52.420;10.538;2023-01-08T08:01:39;9.20;99.90
23083;DHT22;11709;52.420;10.538;2023-01-08T08:05:42;9.20;99.90
23083;DHT22;11709;52.420;10.538;2023-01-08T08:09:44;9.20;99.90
23083;DHT22;11709;52.420;10.538;2023-01-08T08:13:49;9.20;99.90
23083;DHT22;11709;52.420;10.538;2023-01-08T08:17:51;9.10;99.90
23083;DHT22;11709;52.420;10.538;2023-01-08T08:21:54;9.10;99.90
23083;DHT22;11709;52.420;10.538;2023-01-08T08:25:56;9.10;99.90
23083;DHT22;11709;52.420;10.538;2023-01-08T08:29:59;9.10;99.90
23083;DHT22;11709;52.420;10.538;2023-01-08T08:34:01;9.00;99.90
23083;DHT22;11709;52.420;10.538;2023-01-08T08:38:04;9.00;99.90
23083;DHT22;11709;52.420;10.538;2023-01-08T08:42:07;9.00;99.90
23083;DHT22;11709;52.420;10.538;2023-01-08T08:46:09;9.00;99.90
23083;DHT22;11709;52.420;10.538;2023-01-08T08:50:11;9.00;99.90
23083;DHT22;11709;52.420;10.538;2023-01-08T08:54:14;9.00;99.90
23083;DHT22;11709;52.420;10.538;2023-01-08T08:58:16;9.00;99.90
23083;DHT22;11709;52.420;10.538;2023-01-08T09:02:19;9.00;99.90
23083;DHT22;11709;52.420;10.538;2023-01-08T09:06:22;9.00;99.90
23083;DHT22;11709;52.420;10.538;2023-01-08T09:10:26;9.10;99.90
23083;DHT22;11709;52.420;10.538;2023-01-08T09:14:28;9.10;99.90
23083;DHT22;11709;52.420;10.538;2023-01-08T09:18:31;9.10;99.90
23083;DHT22;11709;52.420;10.538;2023-01-08T09:22:33;9.10;99.90
23083;DHT22;11709;52.420;10.538;2023-01-08T09:26:36;9.10;99.90
23083;DHT22;11709;52.420;10.538;2023-01-08T09:30:39;9.10;99.90
23083;DHT22;11709;52.420;10.538;2023-01-08T09:34:41;9.10;99.90
23083;DHT22;11709;52.420;10.538;2023-01-08T09:38:44;9.10;99.90
23083;DHT22;11709;52.420;10.538;2023-01-08T09:42:58;9.20;99.90
23083;DHT22;11709;52.420;10.538;2023-01-08T09:47:01;9.20;99.90
23083;DHT22;11709;52.420;10.538;2023-01-08T09:51:11;9.20;99.90
23083;DHT22;11709;52.420;10.538;2023-01-08T09:55:14;9.30;99.90
23083;DHT22;11709;52.420;10.538;2023-01-08T09:59:17;9.30;99.90
23083;DHT22;11709;52.420;10.538;2023-01-08T10:03:24;9.30;99.90
23083;DHT22;11709;52.420;10.538;2023-01-08T10:07:27;9.40;99.90
23083;DHT22;11709;52.420;10.538;2023-01-08T10:11:38;9.40;99.90
23083;DHT22;11709;52.420;10.538;2023-01-08T10:15:37;9.50;99.90
23083;DHT22;11709;52.420;10.538;2023-01-08T10:19:41;9.50;99.90
23083;DHT22;11709;52.420;10.538;2023-01-08T10:23:50;9.50;99.90
23083;DHT22;11709;52.420;10.538;2023-01-08T10:28:01;9.50;99.90
23083;DHT22;11709;52.420;10.538;2023-01-08T10:32:13;9.60;99.90
23083;DHT22;11709;52.420;10.538;2023-01-08T10:36:14;9.60;99.90
23083;DHT22;11709;52.420;10.538;2023-01-08T10:40:22;9.60;99.90
23083;DHT22;11709;52.420;10.538;2023-01-08T10:44:25;9.70;99.90
23083;DHT22;11709;52.420;10.538;2023-01-08T10:48:36;9.70;99.90
23083;DHT22;11709;52.420;10.538;2023-01-08T10:52:36;9.70;99.90
23083;DHT22;11709;52.420;10.538;2023-01-08T10:56:41;9.70;99.90
23083;DHT22;11709;52.420;10.538;2023-01-08T11:00:44;9.70;99.90
23083;DHT22;11709;52.420;10.538;2023-01-08T11:04:49;9.80;99.90
23083;DHT22;11709;52.420;10.538;2023-01-08T11:08:54;9.80;99.90
23083;DHT22;11709;52.420;10.538;2023-01-08T11:13:00;9.80;99.90
23083;DHT22;11709;52.420;10.538;2023-01-08T11:17:10;9.90;99.90
23083;DHT22;11709;52.420;10.538;2023-01-08T11:21:27;9.80;99.90
23083;DHT22;11709;52.420;10.538;2023-01-08T11:25:33;9.80;99.90
23083;DHT22;11709;52.420;10.538;2023-01-08T11:38:05;9.90;99.90
23083;DHT22;11709;52.420;10.538;2023-01-08T11:47:01;10.00;99.90
23083;DHT22;11709;52.420;10.538;2023-01-08T11:51:28;10.00;99.90
23083;DHT22;11709;52.420;10.538;2023-01-08T12:08:40;10.20;99.90
23083;DHT22;11709;52.420;10.538;2023-01-08T12:13:04;10.20;99.90
23083;DHT22;11709;52.420;10.538;2023-01-08T12:17:15;10.30;99.90
23083;DHT22;11709;52.420;10.538;2023-01-08T12:21:23;10.30;99.90
23083;DHT22;11709;52.420;10.538;2023-01-08T12:25:30;10.40;99.90
23083;DHT22;11709;52.420;10.538;2023-01-08T12:29:56;10.40;99.90
23083;DHT22;11709;52.420;10.538;2023-01-08T12:34:02;10.40;99.90
23083;DHT22;11709;52.420;10.538;2023-01-08T12:38:10;10.50;99.90
23083;DHT22;11709;52.420;10.538;2023-01-08T12:42:17;10.40;99.90
23083;DHT22;11709;52.420;10.538;2023-01-08T12:46:28;10.50;99.90
23083;DHT22;11709;52.420;10.538;2023-01-08T12:50:33;10.60;99.90
23083;DHT22;11709;52.420;10.538;2023-01-08T12:54:53;10.60;99.90
23083;DHT22;11709;52.420;10.538;2023-01-08T13:03:13;10.60;99.90
23083;DHT22;11709;52.420;10.538;2023-01-08T13:07:28;10.70;99.90
23083;DHT22;11709;52.420;10.538;2023-01-08T13:11:33;10.80;99.90
23083;DHT22;11709;52.420;10.538;2023-01-08T13:15:38;11.00;99.90
23083;DHT22;11709;52.420;10.538;2023-01-08T13:19:43;11.20;99.90
23083;DHT22;11709;52.420;10.538;2023-01-08T13:23:46;11.20;99.90
23083;DHT22;11709;52.420;10.538;2023-01-08T13:27:49;11.10;99.90
23083;DHT22;11709;52.420;10.538;2023-01-08T13:31:51;11.00;99.90
23083;DHT22;11709;52.420;10.538;2023-01-08T13:45:00;10.90;99.90
23083;DHT22;11709;52.420;10.538;2023-01-08T13:49:14;10.90;99.90
23083;DHT22;11709;52.420;10.538;2023-01-08T13:53:13;10.90;99.90
23083;DHT22;11709;52.420;10.538;2023-01-08T13:57:16;10.80;99.90
23083;DHT22;11709;52.420;10.538;2023-01-08T14:01:21;10.90;99.90
23083;DHT22;11709;52.420;10.538;2023-01-08T14:05:27;10.80;99.90
23083;DHT22;11709;52.420;10.538;2023-01-08T14:09:30;10.80;99.90
23083;DHT22;11709;52.420;10.538;2023-01-08T14:13:32;10.80;99.90
23083;DHT22;11709;52.420;10.538;2023-01-08T14:17:36;10.90;99.90
23083;DHT22;11709;52.420;10.538;2023-01-08T14:21:38;11.50;99.90
23083;DHT22;11709;52.420;10.538;2023-01-08T14:25:41;12.20;99.90
23083;DHT22;11709;52.420;10.538;2023-01-08T14:29:44;12.50;99.90
23083;DHT22;11709;52.420;10.538;2023-01-08T14:33:47;12.60;99.90
23083;DHT22;11709;52.420;10.538;2023-01-08T14:37:50;12.70;99.90
23083;DHT22;11709;52.420;10.538;2023-01-08T14:41:54;12.40;99.90
23083;DHT22;11709;52.420;10.538;2023-01-08T14:46:25;12.10;99.90
23083;DHT22;11709;52.420;10.538;2023-01-08T14:50:25;11.80;99.90
23083;DHT22;11709;52.420;10.538;2023-01-08T14:54:33;11.50;99.90
23083;DHT22;11709;52.420;10.538;2023-01-08T14:58:38;11.30;99.90
23083;DHT22;11709;52.420;10.538;2023-01-08T15:02:41;11.10;99.90
23083;DHT22;11709;52.420;10.538;2023-01-08T15:06:44;10.80;99.90
23083;DHT22;11709;52.420;10.538;2023-01-08T15:10:58;10.70;99.90
23083;DHT22;11709;52.420;10.538;2023-01-08T15:15:17;10.50;99.90
23083;DHT22;11709;52.420;10.538;2023-01-08T15:19:23;10.40;99.90
23083;DHT22;11709;52.420;10.538;2023-01-08T15:23:38;10.30;99.90
23083;DHT22;11709;52.420;10.538;2023-01-08T15:27:40;10.20;99.90
23083;DHT22;11709;52.420;10.538;2023-01-08T15:31:46;10.00;99.90
23083;DHT22;11709;52.420;10.538;2023-01-08T15:35:49;10.00;99.90
23083;DHT22;11709;52.420;10.538;2023-01-08T15:39:52;9.90;99.90
23083;DHT22;11709;52.420;10.538;2023-01-08T15:43:54;9.90;99.90
23083;DHT22;11709;52.420;10.538;2023-01-08T15:47:57;9.90;99.90
23083;DHT22;11709;52.420;10.538;2023-01-08T15:52:00;10.00;99.90
23083;DHT22;11709;52.420;10.538;2023-01-08T15:56:03;9.90;99.90
23083;DHT22;11709;52.420;10.538;2023-01-08T16:00:06;9.90;99.90
23083;DHT22;11709;52.420;10.538;2023-01-08T16:04:09;9.90;99.90
23083;DHT22;11709;52.420;10.538;2023-01-08T16:08:11;9.80;99.90
23083;DHT22;11709;52.420;10.538;2023-01-08T16:12:14;9.70;99.90
23083;DHT22;11709;52.420;10.538;2023-01-08T16:16:16;9.60;99.90
23083;DHT22;11709;52.420;10.538;2023-01-08T16:20:20;9.60;99.90
23083;DHT22;11709;52.420;10.538;2023-01-08T16:24:23;9.50;99.90
23083;DHT22;11709;52.420;10.538;2023-01-08T16:28:26;9.50;99.90
23083;DHT22;11709;52.420;10.538;2023-01-08T16:32:28;9.50;99.90
23083;DHT22;11709;52.420;10.538;2023-01-08T16:36:31;9.50;99.90
23083;DHT22;11709;52.420;10.538;2023-01-08T16:40:33;9.50;99.90
23083;DHT22;11709;52.420;10.538;2023-01-08T16:44:37;9.40;99.90
23083;DHT22;11709;52.420;10.538;2023-01-08T16:48:43;9.40;99.90
23083;DHT22;11709;52.420;10.538;2023-01-08T16:52:47;9.40;99.90
23083;DHT22;11709;52.420;10.538;2023-01-08T16:56:51;9.40;99.90
23083;DHT22;11709;52.420;10.538;2023-01-08T17:00:54;9.30;99.90
23083;DHT22;11709;52.420;10.538;2023-01-08T17:04:57;9.30;99.90
23083;DHT22;11709;52.420;10.538;2023-01-08T17:08:59;9.20;99.90
23083;DHT22;11709;52.420;10.538;2023-01-08T17:13:02;9.20;99.90
23083;DHT22;11709;52.420;10.538;2023-01-08T17:17:04;9.20;99.90
23083;DHT22;11709;52.420;10.538;2023-01-08T17:21:08;9.20;99.90
23083;DHT22;11709;52.420;10.538;2023-01-08T17:25:10;9.20;99.90
23083;DHT22;11709;52.420;10.538;2023-01-08T17:29:13;9.20;99.90
23083;DHT22;11709;52.420;10.538;2023-01-08T17:33:15;9.20;99.90
23083;DHT22;11709;52.420;10.538;2023-01-08T17:37:18;9.20;99.90
23083;DHT22;11709;52.420;10.538;2023-01-08T17:41:21;9.30;99.90
23083;DHT22;11709;52.420;10.538;2023-01-08T17:45:42;9.20;99.90
23083;DHT22;11709;52.420;10.538;2023-01-08T17:49:48;9.20;99.90
23083;DHT22;11709;52.420;10.538;2023-01-08T17:53:48;9.20;99.90
23083;DHT22;11709;52.420;10.538;2023-01-08T17:57:51;9.20;99.90
23083;DHT22;11709;52.420;10.538;2023-01-08T18:01:53;9.10;99.90
23083;DHT22;11709;52.420;10.538;2023-01-08T18:05:57;9.00;99.90
23083;DHT22;11709;52.420;10.538;2023-01-08T18:10:01;8.90;99.90
23083;DHT22;11709;52.420;10.538;2023-01-08T18:14:03;8.80;99.90
23083;DHT22;11709;52.420;10.538;2023-01-08T18:18:06;8.90;99.90
23083;DHT22;11709;52.420;10.538;2023-01-08T18:22:08;8.90;99.90
23083;DHT22;11709;52.420;10.538;2023-01-08T18:26:11;8.90;99.90
23083;DHT22;11709;52.420;10.538;2023-01-08T18:30:13;8.90;99.90
23083;DHT22;11709;52.420;10.538;2023-01-08T18:34:16;8.90;99.90
23083;DHT22;11709;52.420;10.538;2023-01-08T18:38:18;8.90;99.90
23083;DHT22;11709;52.420;10.538;2023-01-08T18:42:21;8.90;99.90
23083;DHT22;11709;52.420;10.538;2023-01-08T18:46:26;9.00;99.90
23083;DHT22;11709;52.420;10.538;2023-01-08T18:50:28;9.00;99.90
23083;DHT22;11709;52.420;10.538;2023-01-08T18:54:31;9.00;99.90
23083;DHT22;11709;52.420;10.538;2023-01-08T18:58:33;9.00;99.90
23083;DHT22;11709;52.420;10.538;2023-01-08T19:02:36;9.00;99.90
23083;DHT22;11709;52.420;10.538;2023-01-08T19:06:38;9.00;99.90
23083;DHT22;11709;52.420;10.538;2023-01-08T19:10:41;9.10;99.90
23083;DHT22;11709;52.420;10.538;2023-01-08T19:14:44;9.00;99.90
23083;DHT22;11709;52.420;10.538;2023-01-08T19:18:46;9.00;99.90
23083;DHT22;11709;52.420;10.538;2023-01-08T19:22:50;8.90;99.90
23083;DHT22;11709;52.420;10.538;2023-01-08T19:26:53;8.90;99.90
23083;DHT22;11709;52.420;10.538;2023-01-08T19:30:56;8.80;99.90
23083;DHT22;11709;52.420;10.538;2023-01-08T19:34:59;8.80;99.90
23083;DHT22;11709;52.420;10.538;2023-01-08T19:39:02;8.80;99.90
23083;DHT22;11709;52.420;10.538;2023-01-08T19:43:05;8.70;99.90
23083;DHT22;11709;52.420;10.538;2023-01-08T19:47:26;8.70;99.90
23083;DHT22;11709;52.420;10.538;2023-01-08T19:51:29;8.60;99.90
23083;DHT22;11709;52.420;10.538;2023-01-08T19:55:34;8.50;99.90
23083;DHT22;11709;52.420;10.538;2023-01-08T19:59:37;8.50;99.90
23083;DHT22;11709;52.420;10.538;2023-01-08T20:03:40;8.50;99.90
23083;DHT22;11709;52.420;10.538;2023-01-08T20:07:43;8.50;99.90
23083;DHT22;11709;52.420;10.538;2023-01-08T20:11:45;8.50;99.90
23083;DHT22;11709;52.420;10.538;2023-01-08T20:15:57;8.50;99.90
23083;DHT22;11709;52.420;10.538;2023-01-08T20:19:59;8.40;99.90
23083;DHT22;11709;52.420;10.538;2023-01-08T20:24:04;8.40;99.90
23083;DHT22;11709;52.420;10.538;2023-01-08T20:28:09;8.40;99.90
23083;DHT22;11709;52.420;10.538;2023-01-08T20:32:11;8.40;99.90
23083;DHT22;11709;52.420;10.538;2023-01-08T20:36:16;8.40;99.90
23083;DHT22;11709;52.420;10.538;2023-01-08T20:40:19;8.40;99.90
23083;DHT22;11709;52.420;10.538;2023-01-08T20:44:21;8.40;99.90
23083;DHT22;11709;52.420;10.538;2023-01-08T20:48:24;8.40;99.90
23083;DHT22;11709;52.420;10.538;2023-01-08T20:52:28;8.40;99.90
23083;DHT22;11709;52.420;10.538;2023-01-08T20:56:31;8.50;99.90
23083;DHT22;11709;52.420;10.538;2023-01-08T21:00:34;8.50;99.90
23083;DHT22;11709;52.420;10.538;2023-01-08T21:04:36;8.50;99.90
23083;DHT22;11709;52.420;10.538;2023-01-08T21:08:41;8.30;99.90
23083;DHT22;11709;52.420;10.538;2023-01-08T21:12:43;8.20;99.90
23083;DHT22;11709;52.420;10.538;2023-01-08T21:16:46;8.10;99.90
23083;DHT22;11709;52.420;10.538;2023-01-08T21:20:48;8.00;99.90
23083;DHT22;11709;52.420;10.538;2023-01-08T21:24:51;7.90;99.90
23083;DHT22;11709;52.420;10.538;2023-01-08T21:28:53;7.80;99.90
23083;DHT22;11709;52.420;10.538;2023-01-08T21:32:56;7.70;99.90
23083;DHT22;11709;52.420;10.538;2023-01-08T21:36:59;7.60;99.90
23083;DHT22;11709;52.420;10.538;2023-01-08T21:41:06;7.50;99.90
23083;DHT22;11709;52.420;10.538;2023-01-08T21:45:09;7.30;99.90
23083;DHT22;11709;52.420;10.538;2023-01-08T21:49:27;7.10;99.90
23083;DHT22;11709;52.420;10.538;2023-01-08T21:53:29;7.00;99.90
23083;DHT22;11709;52.420;10.538;2023-01-08T21:57:37;7.00;99.90
23083;DHT22;11709;52.420;10.538;2023-01-08T22:01:40;6.90;99.90
23083;DHT22;11709;52.420;10.538;2023-01-08T22:05:42;6.80;99.90
23083;DHT22;11709;52.420;10.538;2023-01-08T22:09:45;6.70;99.90
23083;DHT22;11709;52.420;10.538;2023-01-08T22:13:47;6.60;99.90
23083;DHT22;11709;52.420;10.538;2023-01-08T22:17:50;6.50;99.90
23083;DHT22;11709;52.420;10.538;2023-01-08T22:21:52;6.40;99.90
23083;DHT22;11709;52.420;10.538;2023-01-08T22:25:55;6.30;99.90
23083;DHT22;11709;52.420;10.538;2023-01-08T22:29:57;6.30;99.90
23083;DHT22;11709;52.420;10.538;2023-01-08T22:34:00;6.30;99.90
23083;DHT22;11709;52.420;10.538;2023-01-08T22:38:02;6.30;99.90
23083;DHT22;11709;52.420;10.538;2023-01-08T22:42:05;6.20;99.90
23083;DHT22;11709;52.420;10.538;2023-01-08T22:46:15;6.30;99.90
23083;DHT22;11709;52.420;10.538;2023-01-08T22:50:13;6.20;99.90
23083;DHT22;11709;52.420;10.538;2023-01-08T22:54:16;6.20;99.90
23083;DHT22;11709;52.420;10.538;2023-01-08T22:58:18;6.10;99.90
23083;DHT22;11709;52.420;10.538;2023-01-08T23:02:21;6.10;99.90
23083;DHT22;11709;52.420;10.538;2023-01-08T23:06:26;6.10;99.90
23083;DHT22;11709;52.420;10.538;2023-01-08T23:10:29;6.10;99.90
23083;DHT22;11709;52.420;10.538;2023-01-08T23:14:31;6.10;99.90
23083;DHT22;11709;52.420;10.538;2023-01-08T23:18:35;6.00;99.90
23083;DHT22;11709;52.420;10.538;2023-01-08T23:22:38;6.00;99.90
23083;DHT22;11709;52.420;10.538;2023-01-08T23:26:41;6.00;99.90
23083;DHT22;11709;52.420;10.538;2023-01-08T23:30:43;6.00;99.90
23083;DHT22;11709;52.420;10.538;2023-01-08T23:34:46;6.00;99.90
23083;DHT22;11709;52.420;10.538;2023-01-08T23:38:51;6.00;99.90
23083;DHT22;11709;52.420;10.538;2023-01-08T23:42:54;5.90;99.90
23083;DHT22;11709;52.420;10.538;2023-01-08T23:46:56;6.00;99.90
23083;DHT22;11709;52.420;10.538;2023-01-08T23:50:59;6.00;99.90
23083;DHT22;11709;52.420;10.538;2023-01-08T23:55:02;6.00;99.90
23083;DHT22;11709;52.420;10.538;2023-01-08T23:59:04;6.00;99.90
